Terminal Aerodrome Forecast
Issued by NWS

Home | Current Version | Previous Version | Graphics & Text | Print | Product List | Glossary On
Versions: 1 2 3 4 5 6 7 8 9 10 11 12 13 14 15 16 17 18 19
040
FTUS43 KABR 272324
TAFATY
TAF
KATY 272324Z 2800/2824 35010KT P6SM SKC
     FM280200 VRB05KT P6SM SKC
     FM281300 01007KT P6SM BKN050
     FM281600 02007KT P6SM SKC=

USA.gov is the U.S. government's official web portal to all federal, state and local government web resources and services.